Time;durP1;ratioP1;P1;durP2;ratioP2;P2;SDS_P1;SDS_P2;PMS_P1;PMS_P2;Temp;Humidity;BMP_temperature;BMP_pressure;BME280_temperature;BME280_humidity;BME280_pressure;Samples;Min_cycle;Max_cycle;Signal;HPM_P1;HPM_P2
2021/12/04 00:02:22;;;;;;;5.03;4.60;;;4.90;92.80;;;;;;6244986;23;20420;-87
2021/12/04 00:04:52;;;;;;;13.13;5.30;;;5.00;93.30;;;;;;6245636;23;20400;-88
2021/12/04 00:07:20;;;;;;;6.00;4.10;;;4.90;93.30;;;;;;6273240;23;20411;-86
2021/12/04 00:09:50;;;;;;;7.60;6.20;;;4.90;93.20;;;;;;6259569;22;20412;-86
2021/12/04 00:12:18;;;;;;;5.17;4.67;;;5.00;93.20;;;;;;6265643;22;20431;-86
2021/12/04 00:14:45;;;;;;;5.97;4.87;;;4.90;93.30;;;;;;6267035;22;20444;-86
2021/12/04 00:17:12;;;;;;;5.33;4.03;;;5.00;93.00;;;;;;6261505;23;20384;-85
2021/12/04 00:19:39;;;;;;;5.77;5.20;;;5.00;92.60;;;;;;6271846;22;20408;-86
2021/12/04 00:22:06;;;;;;;6.70;6.00;;;5.00;92.60;;;;;;6271371;22;20439;-86
2021/12/04 00:24:32;;;;;;;10.63;6.20;;;5.00;93.20;;;;;;6271139;22;20435;-86
2021/12/04 00:27:00;;;;;;;7.90;6.03;;;5.00;93.30;;;;;;6265504;23;20503;-87
2021/12/04 00:29:28;;;;;;;6.60;5.40;;;5.00;93.40;;;;;;6246431;23;20395;-87
2021/12/04 00:31:57;;;;;;;7.07;5.63;;;5.00;93.20;;;;;;6244847;23;20419;-87
2021/12/04 00:34:26;;;;;;;4.97;4.50;;;4.90;93.30;;;;;;6244733;23;20806;-87
2021/12/04 00:37:05;;;;;;;9.50;6.70;;;5.00;93.60;;;;;;6245943;23;20731;-88
2021/12/04 00:50:36;;;;;;;8.50;5.43;;;5.00;93.40;;;;;;6245288;23;20363;-87
2021/12/04 00:53:03;;;;;;;6.27;5.47;;;5.00;93.50;;;;;;6255040;23;20431;-85
2021/12/04 00:55:30;;;;;;;5.80;5.20;;;5.00;93.70;;;;;;6268711;22;20444;-86
2021/12/04 00:57:58;;;;;;;6.50;5.90;;;5.00;93.70;;;;;;6266155;23;20399;-86
2021/12/04 01:00:25;;;;;;;7.57;6.57;;;5.00;93.90;;;;;;6254170;23;20728;-86
2021/12/04 01:02:52;;;;;;;5.50;4.83;;;5.00;93.70;;;;;;6247651;23;20810;-86
2021/12/04 01:05:19;;;;;;;8.70;6.33;;;5.00;93.80;;;;;;6246507;23;20400;-87
2021/12/04 01:07:46;;;;;;;6.00;5.33;;;5.00;94.30;;;;;;6252816;23;20377;-87
2021/12/04 01:10:12;;;;;;;5.80;5.20;;;5.00;94.20;;;;;;6270671;23;20410;-85
2021/12/04 01:12:39;;;;;;;6.00;5.43;;;5.00;94.20;;;;;;6252635;23;20457;-87
2021/12/04 01:15:08;;;;;;;6.30;5.70;;;5.00;94.50;;;;;;6247059;23;20747;-86
2021/12/04 01:17:35;;;;;;;5.50;5.00;;;5.00;94.50;;;;;;6247270;23;20415;-86
2021/12/04 01:20:02;;;;;;;6.87;4.70;;;5.00;94.50;;;;;;6244657;23;20407;-85
2021/12/04 01:22:29;;;;;;;6.60;5.83;;;5.00;94.60;;;;;;6252418;23;20428;-86
2021/12/04 01:24:55;;;;;;;6.03;4.97;;;5.00;94.80;;;;;;6264855;23;20386;-86
2021/12/04 01:27:23;;;;;;;5.20;4.10;;;5.10;94.90;;;;;;6248223;23;20411;-86
2021/12/04 01:29:50;;;;;;;8.70;4.97;;;5.10;95.00;;;;;;6254432;23;20415;-86
2021/12/04 01:32:18;;;;;;;7.80;5.50;;;5.10;95.30;;;;;;6248300;23;20455;-86
2021/12/04 01:34:44;;;;;;;7.87;5.90;;;5.00;95.70;;;;;;6245331;23;20414;-86
2021/12/04 01:37:11;;;;;;;6.50;5.10;;;4.90;96.40;;;;;;6247965;23;20407;-87
2021/12/04 01:39:38;;;;;;;6.70;5.57;;;4.80;97.10;;;;;;6247640;23;20408;-88
2021/12/04 01:42:05;;;;;;;5.63;4.77;;;4.60;98.10;;;;;;6245138;23;20438;-88
2021/12/04 01:44:32;;;;;;;6.87;4.90;;;4.50;98.70;;;;;;6245207;23;20732;-88
2021/12/04 01:47:00;;;;;;;7.23;5.77;;;4.40;99.30;;;;;;6247611;23;20414;-87
2021/12/04 01:49:28;;;;;;;7.70;4.63;;;4.30;99.90;;;;;;6256415;23;20396;-86
2021/12/04 01:51:55;;;;;;;6.47;5.03;;;4.20;99.90;;;;;;6254305;23;20870;-86
2021/12/04 01:54:22;;;;;;;6.80;5.40;;;4.20;99.90;;;;;;6257358;23;20716;-88
2021/12/04 01:56:49;;;;;;;5.80;5.20;;;4.20;99.90;;;;;;6263950;22;20439;-86
2021/12/04 01:59:15;;;;;;;7.70;5.10;;;4.10;99.90;;;;;;6262171;22;20407;-87
2021/12/04 02:01:42;;;;;;;6.67;5.13;;;4.10;99.90;;;;;;6249790;23;20435;-87
2021/12/04 02:04:09;;;;;;;5.83;4.47;;;4.10;99.90;;;;;;6268347;22;20376;-86
2021/12/04 02:06:38;;;;;;;5.30;4.23;;;4.10;99.90;;;;;;6252346;23;20411;-87
2021/12/04 02:09:04;;;;;;;4.90;4.40;;;4.10;99.90;;;;;;6249753;23;20419;-87
2021/12/04 02:11:31;;;;;;;6.37;4.80;;;4.10;99.90;;;;;;6248071;23;20408;-87
2021/12/04 02:13:58;;;;;;;5.03;4.50;;;4.10;99.90;;;;;;6247576;23;20460;-86
2021/12/04 02:16:25;;;;;;;3.67;3.37;;;4.10;99.90;;;;;;6248043;23;20833;-86
2021/12/04 02:18:52;;;;;;;5.23;4.60;;;4.10;99.90;;;;;;6248219;23;20487;-87
2021/12/04 02:21:20;;;;;;;6.47;4.97;;;4.10;99.90;;;;;;6269626;22;20375;-86
2021/12/04 02:23:47;;;;;;;5.33;4.83;;;4.10;99.90;;;;;;6254333;23;20422;-87
2021/12/04 02:26:13;;;;;;;11.13;6.30;;;4.10;99.90;;;;;;6248641;23;20429;-87
2021/12/04 02:28:43;;;;;;;8.47;4.70;;;3.90;99.90;;;;;;6256392;23;20403;-86
2021/12/04 02:31:10;;;;;;;9.00;5.83;;;3.90;99.90;;;;;;6273987;23;20382;-87
2021/12/04 02:33:36;;;;;;;7.20;5.00;;;3.80;99.90;;;;;;6258782;22;20440;-87
2021/12/04 02:36:07;;;;;;;10.33;4.73;;;3.80;99.90;;;;;;6273224;22;20439;-86
2021/12/04 02:38:35;;;;;;;5.27;4.77;;;3.80;99.90;;;;;;6264955;23;20427;-87
2021/12/04 02:41:03;;;;;;;9.00;6.10;;;3.80;99.90;;;;;;6266725;23;20497;-86
2021/12/04 02:43:33;;;;;;;5.10;4.30;;;3.70;99.90;;;;;;6255865;23;20433;-86
2021/12/04 02:46:01;;;;;;;6.17;5.00;;;3.70;99.90;;;;;;6250931;23;20398;-87
2021/12/04 02:48:28;;;;;;;5.13;4.63;;;3.70;99.90;;;;;;6251391;23;20387;-87
2021/12/04 02:50:55;;;;;;;5.60;5.10;;;3.70;99.90;;;;;;6250043;23;20262;-87
2021/12/04 02:53:21;;;;;;;11.05;5.57;;;3.70;99.90;;;;;;6248346;23;20770;-88
2021/12/04 02:55:50;;;;;;;7.33;5.10;;;3.70;99.90;;;;;;6247888;23;20205;-88
2021/12/04 02:58:17;;;;;;;10.20;5.80;;;3.70;99.90;;;;;;6263709;23;20406;-87
2021/12/04 03:00:48;;;;;;;8.30;5.80;;;3.70;99.90;;;;;;6264594;23;20489;-87
2021/12/04 03:03:18;;;;;;;7.20;6.50;;;3.70;99.90;;;;;;6271704;23;20529;-86
2021/12/04 03:05:47;;;;;;;7.63;5.83;;;3.70;99.90;;;;;;6271875;23;20418;-86
2021/12/04 03:08:14;;;;;;;6.83;6.13;;;3.70;99.90;;;;;;6249082;23;20735;-88
2021/12/04 03:10:41;;;;;;;8.87;6.77;;;3.70;99.90;;;;;;6248091;23;20393;-87
2021/12/04 03:13:10;;;;;;;6.47;5.87;;;3.70;99.90;;;;;;6248933;23;20427;-87
2021/12/04 03:15:40;;;;;;;9.38;7.25;;;3.70;99.90;;;;;;6249986;23;20508;-86
2021/12/04 03:18:07;;;;;;;8.77;6.70;;;3.70;99.90;;;;;;6254485;23;20168;-87
2021/12/04 03:20:40;;;;;;;8.80;7.70;;;3.70;99.90;;;;;;6254836;23;20397;-87
2021/12/04 03:23:13;;;;;;;7.37;6.57;;;3.80;99.90;;;;;;6247690;23;20533;-87
2021/12/04 03:25:40;;;;;;;15.07;7.87;;;3.70;99.90;;;;;;6256306;23;20389;-86
2021/12/04 03:28:08;;;;;;;10.20;8.20;;;3.70;99.90;;;;;;6254105;23;20917;-88
2021/12/04 03:30:42;;;;;;;8.27;7.47;;;3.70;99.90;;;;;;6248705;23;20441;-86
2021/12/04 03:41:21;;;;;;;10.97;8.77;;;3.70;99.90;;;;;;6262608;23;20360;-87
2021/12/04 03:43:48;;;;;;;12.20;9.10;;;3.70;99.90;;;;;;6271971;22;20409;-86
2021/12/04 03:46:16;;;;;;;11.30;8.37;;;3.70;99.90;;;;;;6274082;22;20408;-86
2021/12/04 03:48:53;;;;;;;20.70;9.37;;;3.60;99.90;;;;;;6259484;23;20395;-87
2021/12/04 03:51:21;;;;;;;13.17;8.17;;;3.60;99.90;;;;;;6259349;22;20398;-87
2021/12/04 03:53:48;;;;;;;9.73;8.73;;;3.60;99.90;;;;;;6246045;23;20438;-87
2021/12/04 03:56:20;;;;;;;14.13;9.70;;;3.60;99.90;;;;;;6246265;23;20446;-86
2021/12/04 03:58:47;;;;;;;10.43;8.37;;;3.60;99.90;;;;;;6246049;23;20446;-87
2021/12/04 04:01:13;;;;;;;10.53;8.80;;;3.60;99.90;;;;;;6255154;23;20401;-87
2021/12/04 04:03:41;;;;;;;10.20;9.17;;;3.60;99.90;;;;;;6246344;23;20421;-87
2021/12/04 04:06:08;;;;;;;12.80;8.80;;;3.60;99.90;;;;;;6245977;23;20424;-88
2021/12/04 04:08:35;;;;;;;10.53;8.83;;;3.60;99.90;;;;;;6245651;23;20408;-87
2021/12/04 04:11:01;;;;;;;10.97;7.80;;;3.60;99.90;;;;;;6245810;23;20735;-87
2021/12/04 04:13:28;;;;;;;11.00;7.93;;;3.60;99.90;;;;;;6259111;23;20430;-86
2021/12/04 04:15:55;;;;;;;9.67;8.60;;;3.60;99.90;;;;;;6252222;23;20445;-87
2021/12/04 04:18:22;;;;;;;12.50;9.07;;;3.60;99.90;;;;;;6272334;23;20398;-87
2021/12/04 04:20:50;;;;;;;10.97;8.20;;;3.70;99.90;;;;;;6247203;23;20721;-87
2021/12/04 04:23:17;;;;;;;9.50;8.10;;;3.70;99.90;;;;;;6254786;23;20421;-87
2021/12/04 04:25:44;;;;;;;10.63;9.10;;;3.70;99.90;;;;;;6247101;23;20398;-86
2021/12/04 04:28:11;;;;;;;12.33;9.63;;;3.70;99.90;;;;;;6246590;23;20419;-87
2021/12/04 04:30:38;;;;;;;10.30;9.03;;;3.80;99.90;;;;;;6245707;23;20400;-87
2021/12/04 04:33:06;;;;;;;13.70;9.87;;;3.70;99.90;;;;;;6263332;23;20495;-87
2021/12/04 04:35:33;;;;;;;10.90;9.03;;;3.80;99.90;;;;;;6251489;23;20458;-86
2021/12/04 04:38:15;;;;;;;8.60;7.23;;;3.80;99.90;;;;;;6248433;23;20417;-87
2021/12/04 05:00:06;;;;;;;11.90;8.20;;;4.00;99.90;;;;;;6247716;23;20371;-88
2021/12/04 05:10:03;;;;;;;8.50;7.60;;;4.10;99.90;;;;;;6249227;23;20439;-88
2021/12/04 05:11:10;;;;;;;9.87;8.57;;;4.20;99.90;;;;;;6248091;23;20398;-88
2021/12/04 05:13:36;;;;;;;10.13;7.60;;;4.20;99.90;;;;;;6244468;23;20436;-88
2021/12/04 05:16:12;;;;;;;10.77;8.50;;;4.20;99.90;;;;;;6245276;23;20435;-88
2021/12/04 05:18:43;;;;;;;11.90;8.57;;;4.30;99.90;;;;;;6245572;23;20850;-88
2021/12/04 05:21:13;;;;;;;11.87;8.03;;;4.30;99.90;;;;;;6246722;23;20450;-88
2021/12/04 05:23:43;;;;;;;9.70;7.90;;;4.30;99.90;;;;;;6255024;23;20908;-87
2021/12/04 05:26:14;;;;;;;8.93;7.60;;;4.30;99.90;;;;;;6268227;22;20392;-87
2021/12/04 05:28:41;;;;;;;10.17;8.27;;;4.30;99.90;;;;;;6246025;23;20400;-88
2021/12/04 05:31:08;;;;;;;8.87;7.97;;;4.30;99.90;;;;;;6253473;23;20388;-87
2021/12/04 05:33:35;;;;;;;10.90;8.43;;;4.30;99.90;;;;;;6272123;22;20415;-87
2021/12/04 05:36:02;;;;;;;10.43;7.70;;;4.30;99.90;;;;;;6250553;23;20447;-87
2021/12/04 05:38:29;;;;;;;10.40;8.40;;;4.30;99.90;;;;;;6257928;23;20410;-88
2021/12/04 05:40:56;;;;;;;11.47;8.53;;;4.30;99.90;;;;;;6255584;23;20761;-88
2021/12/04 05:43:25;;;;;;;11.40;7.67;;;4.30;99.90;;;;;;6260948;22;20408;-86
2021/12/04 05:45:57;;;;;;;10.50;7.83;;;4.30;99.90;;;;;;6248947;23;20868;-88
2021/12/04 05:48:31;;;;;;;13.37;10.20;;;4.40;99.90;;;;;;6245313;23;20483;-88
2021/12/04 05:51:19;;;;;;;9.60;8.60;;;4.40;99.90;;;;;;6247544;23;20398;-89
2021/12/04 05:54:04;;;;;;;11.93;7.60;;;4.40;99.90;;;;;;6247555;23;20440;-88
2021/12/04 05:56:33;;;;;;;10.70;8.97;;;4.40;99.90;;;;;;6245889;23;20428;-88
2021/12/04 05:59:01;;;;;;;10.90;7.60;;;4.40;99.90;;;;;;6245478;23;20400;-89
2021/12/04 06:01:29;;;;;;;9.83;8.10;;;4.40;99.90;;;;;;6244445;23;20412;-88
2021/12/04 06:03:56;;;;;;;10.40;8.00;;;4.40;99.90;;;;;;6245085;23;20462;-88
2021/12/04 06:06:23;;;;;;;10.97;7.97;;;4.40;99.90;;;;;;6251565;23;20408;-87
2021/12/04 06:08:50;;;;;;;9.57;7.07;;;4.40;99.90;;;;;;6251676;23;20949;-88
2021/12/04 06:11:16;;;;;;;8.90;7.97;;;4.40;99.90;;;;;;6245911;23;20414;-87
2021/12/04 06:13:43;;;;;;;11.60;7.67;;;4.50;99.90;;;;;;6271005;22;20409;-85
2021/12/04 06:16:13;;;;;;;9.80;7.90;;;4.50;99.90;;;;;;6252874;23;20443;-88
2021/12/04 06:18:40;;;;;;;8.73;7.83;;;4.50;99.90;;;;;;6245088;23;20404;-87
2021/12/04 06:23:51;;;;;;;10.47;8.47;;;4.40;99.90;;;;;;6245028;23;20455;-88
2021/12/04 06:26:18;;;;;;;8.33;7.13;;;4.50;99.90;;;;;;6246029;23;20410;-88
2021/12/04 06:28:44;;;;;;;15.40;8.20;;;4.50;99.90;;;;;;6247835;23;20408;-88
2021/12/04 06:31:13;;;;;;;9.10;7.90;;;4.50;99.90;;;;;;6265702;22;20411;-87
2021/12/04 06:33:41;;;;;;;13.13;8.00;;;4.60;99.90;;;;;;6250333;23;20439;-88
2021/12/04 06:36:08;;;;;;;7.00;6.30;;;4.60;99.90;;;;;;6254212;23;20894;-89
2021/12/04 06:38:36;;;;;;;7.70;6.87;;;4.60;99.90;;;;;;6253959;23;20412;-87
2021/12/04 06:41:04;;;;;;;7.87;6.13;;;4.60;99.90;;;;;;6247403;23;20415;-87
2021/12/04 06:43:31;;;;;;;9.40;6.90;;;4.60;99.90;;;;;;6261829;22;20419;-87
2021/12/04 06:46:00;;;;;;;10.83;6.60;;;4.60;99.90;;;;;;6275410;22;20384;-86
2021/12/04 06:48:40;;;;;;;8.33;6.83;;;4.60;99.90;;;;;;6263670;22;20416;-87
2021/12/04 06:51:15;;;;;;;9.00;7.67;;;4.60;99.90;;;;;;6250981;23;20394;-89
2021/12/04 06:53:46;;;;;;;8.00;6.83;;;4.70;99.90;;;;;;6254253;23;20449;-89
2021/12/04 06:56:13;;;;;;;7.33;6.40;;;4.70;99.90;;;;;;6253760;23;20388;-88
2021/12/04 06:58:40;;;;;;;10.20;6.97;;;4.80;99.90;;;;;;6250634;23;20425;-89
2021/12/04 07:01:10;;;;;;;8.83;6.53;;;4.80;99.90;;;;;;6271316;22;20479;-87
2021/12/04 07:03:38;;;;;;;7.93;6.20;;;4.80;99.90;;;;;;6274002;22;20495;-85
2021/12/04 07:06:05;;;;;;;8.93;7.53;;;4.80;99.90;;;;;;6273967;22;20400;-85
2021/12/04 07:08:32;;;;;;;9.60;5.80;;;4.90;99.90;;;;;;6268113;22;20408;-88
2021/12/04 07:10:59;;;;;;;6.40;5.80;;;4.90;99.90;;;;;;6264866;23;20396;-87
2021/12/04 07:13:26;;;;;;;6.30;5.30;;;4.90;99.90;;;;;;6258490;22;20427;-88
2021/12/04 07:16:01;;;;;;;7.73;6.23;;;5.00;99.90;;;;;;6251151;23;20395;-86
2021/12/04 07:18:28;;;;;;;6.20;4.77;;;5.00;99.90;;;;;;6250451;23;20377;-88
2021/12/04 07:20:56;;;;;;;5.60;5.00;;;5.10;99.90;;;;;;6267985;23;20470;-87
2021/12/04 07:23:23;;;;;;;6.70;5.60;;;5.10;99.90;;;;;;6272814;22;20408;-89
2021/12/04 07:25:50;;;;;;;8.50;5.23;;;5.10;99.90;;;;;;6252951;23;20407;-89
2021/12/04 07:28:16;;;;;;;7.83;6.40;;;5.20;99.90;;;;;;6251362;23;20726;-88
2021/12/04 07:30:43;;;;;;;11.20;5.60;;;5.20;99.90;;;;;;6254354;23;20406;-89
2021/12/04 07:33:10;;;;;;;7.10;4.93;;;5.20;99.90;;;;;;6250508;23;20423;-87
2021/12/04 07:35:58;;;;;;;7.47;6.00;;;5.30;99.90;;;;;;6250828;23;20411;-91
2021/12/04 07:38:26;;;;;;;6.20;5.10;;;5.30;99.90;;;;;;6249913;23;20439;-88
2021/12/04 07:40:52;;;;;;;6.17;4.30;;;5.30;99.90;;;;;;6255498;23;20471;-89
2021/12/04 07:43:19;;;;;;;8.00;5.83;;;5.40;99.90;;;;;;6251198;23;20443;-87
2021/12/04 07:45:46;;;;;;;10.07;7.93;;;5.40;99.90;;;;;;6266528;23;20400;-88
2021/12/04 07:48:13;;;;;;;8.47;7.67;;;5.50;99.90;;;;;;6248675;23;20407;-89
2021/12/04 07:50:39;;;;;;;8.67;7.73;;;5.50;99.90;;;;;;6258062;23;20408;-86
2021/12/04 07:53:10;;;;;;;9.43;7.37;;;5.50;99.90;;;;;;6249391;23;20550;-92
2021/12/04 07:55:38;;;;;;;9.40;8.43;;;5.60;99.90;;;;;;6263539;23;20430;-85
2021/12/04 07:58:05;;;;;;;8.00;6.40;;;5.60;99.90;;;;;;6259723;23;20436;-86
2021/12/04 08:00:32;;;;;;;8.13;7.40;;;5.70;99.90;;;;;;6251542;23;20408;-86
2021/12/04 08:03:01;;;;;;;14.37;12.57;;;5.70;99.90;;;;;;6249688;23;20968;-86
2021/12/04 08:05:28;;;;;;;7.13;6.47;;;5.70;99.90;;;;;;6247428;23;20462;-86
2021/12/04 08:07:55;;;;;;;10.40;8.20;;;5.70;99.90;;;;;;6247443;23;20419;-86
2021/12/04 08:10:23;;;;;;;9.27;7.87;;;5.70;99.90;;;;;;6246727;23;20384;-86
2021/12/04 08:12:51;;;;;;;11.50;6.00;;;5.70;99.90;;;;;;6267754;22;20435;-87
2021/12/04 08:15:18;;;;;;;6.70;6.00;;;5.80;99.90;;;;;;6252302;23;20427;-86
2021/12/04 08:17:45;;;;;;;6.80;6.10;;;5.80;99.90;;;;;;6246859;23;20509;-86
2021/12/04 08:20:13;;;;;;;7.80;6.70;;;5.80;99.90;;;;;;6258325;23;20443;-86
2021/12/04 08:22:40;;;;;;;10.20;8.57;;;5.90;99.90;;;;;;6246658;23;20423;-87
2021/12/04 08:25:09;;;;;;;13.10;11.30;;;5.90;99.90;;;;;;6246752;23;20957;-87
2021/12/04 08:27:37;;;;;;;8.67;7.40;;;6.00;99.90;;;;;;6254183;23;20407;-86
2021/12/04 08:30:08;;;;;;;8.30;7.00;;;6.10;99.90;;;;;;6246764;23;20807;-87
2021/12/04 08:32:34;;;;;;;8.23;7.30;;;6.10;99.90;;;;;;6251532;23;20446;-87
2021/12/04 08:35:02;;;;;;;10.23;7.93;;;6.10;99.90;;;;;;6259161;23;20474;-88
2021/12/04 08:37:29;;;;;;;4.93;4.53;;;6.20;99.90;;;;;;6270723;23;20420;-88
2021/12/04 08:39:56;;;;;;;7.57;6.33;;;6.30;99.90;;;;;;6268610;23;20439;-88
2021/12/04 08:42:24;;;;;;;6.23;5.63;;;6.30;99.90;;;;;;6254026;23;20424;-88
2021/12/04 08:44:51;;;;;;;6.90;5.37;;;6.30;99.90;;;;;;6267366;23;20412;-86
2021/12/04 08:47:20;;;;;;;7.43;6.67;;;6.40;99.90;;;;;;6255889;23;20423;-87
2021/12/04 08:49:47;;;;;;;7.10;5.27;;;6.40;99.90;;;;;;6254590;23;20727;-87
2021/12/04 08:52:17;;;;;;;7.10;4.47;;;6.50;99.90;;;;;;6248500;23;20432;-86
2021/12/04 08:54:44;;;;;;;8.70;4.50;;;6.60;99.90;;;;;;6251779;23;20943;-86
2021/12/04 08:57:11;;;;;;;9.70;8.13;;;6.70;99.90;;;;;;6250450;23;20531;-87
2021/12/04 08:59:38;;;;;;;7.77;6.97;;;6.80;99.90;;;;;;6247976;23;20408;-87
2021/12/04 09:02:06;;;;;;;6.57;6.00;;;6.80;99.90;;;;;;6254291;23;20934;-87
2021/12/04 09:04:36;;;;;;;11.93;7.80;;;6.90;99.90;;;;;;6259075;23;20431;-86
2021/12/04 09:07:03;;;;;;;10.13;7.30;;;6.90;99.90;;;;;;6264446;23;20388;-86
2021/12/04 09:09:31;;;;;;;7.57;6.83;;;7.00;99.90;;;;;;6267930;22;20498;-87
2021/12/04 09:12:01;;;;;;;8.27;7.33;;;7.00;99.90;;;;;;6250909;23;20407;-87
2021/12/04 09:14:31;;;;;;;7.97;4.93;;;7.00;99.90;;;;;;6269991;22;20391;-87
2021/12/04 09:17:04;;;;;;;6.67;5.97;;;7.10;99.90;;;;;;6265309;23;20392;-87
2021/12/04 09:19:31;;;;;;;7.20;5.40;;;7.20;99.90;;;;;;6267431;23;20392;-87
2021/12/04 09:22:00;;;;;;;2.53;2.23;;;7.30;99.90;;;;;;6263975;23;20395;-87
2021/12/04 09:24:30;;;;;;;3.43;2.20;;;7.20;99.90;;;;;;6248569;23;20462;-87
2021/12/04 09:27:03;;;;;;;9.20;2.90;;;7.30;99.90;;;;;;6249266;23;20412;-87
2021/12/04 09:32:57;;;;;;;2.20;2.00;;;7.30;99.90;;;;;;6230217;23;20447;-88
2021/12/04 09:35:38;;;;;;;4.40;4.07;;;7.40;99.90;;;;;;6248542;23;20384;-88
2021/12/04 10:00:34;;;;;;;5.13;2.80;;;7.60;99.90;;;;;;6249998;23;20434;-87
2021/12/04 10:14:32;;;;;;;4.07;2.60;;;7.80;99.90;;;;;;6231362;23;20412;-89
2021/12/04 10:20:03;;;;;;;2.93;2.23;;;8.00;99.90;;;;;;6230342;23;20380;-87
2021/12/04 10:22:36;;;;;;;2.90;1.80;;;8.10;99.90;;;;;;6272429;23;20473;-85
2021/12/04 10:33:39;;;;;;;3.50;1.40;;;8.70;99.90;;;;;;6269001;22;20437;-86
2021/12/04 10:36:06;;;;;;;2.00;1.70;;;8.70;99.90;;;;;;6251518;23;20867;-87
2021/12/04 10:38:39;;;;;;;1.60;1.50;;;8.80;99.90;;;;;;6261684;22;20432;-86
2021/12/04 10:41:06;;;;;;;3.30;1.83;;;8.80;99.90;;;;;;6254497;23;20388;-89
2021/12/04 10:43:35;;;;;;;1.60;1.50;;;8.90;99.90;;;;;;6250103;23;20432;-89
2021/12/04 10:46:10;;;;;;;6.10;2.20;;;9.00;99.90;;;;;;6253640;23;20487;-87
2021/12/04 10:48:44;;;;;;;6.23;1.80;;;9.10;99.90;;;;;;6254625;23;20388;-89
2021/12/04 10:51:21;;;;;;;3.40;1.60;;;9.20;99.90;;;;;;6252876;23;20501;-88
2021/12/04 10:53:49;;;;;;;3.13;1.90;;;9.30;99.90;;;;;;6221312;23;20518;-88
2021/12/04 10:56:27;;;;;;;3.27;2.17;;;9.40;99.90;;;;;;6249346;23;20399;-87
2021/12/04 10:59:26;;;;;;;8.27;7.57;;;9.40;99.90;;;;;;6264317;23;20475;-88
2021/12/04 11:02:04;;;;;;;2.00;1.57;;;9.50;99.90;;;;;;6267379;23;20404;-86
2021/12/04 11:04:38;;;;;;;3.10;1.30;;;9.50;99.90;;;;;;6249760;23;20404;-87
2021/12/04 11:18:46;;;;;;;2.20;1.47;;;10.10;99.90;;;;;;6267291;22;20438;-85
2021/12/04 11:27:24;;;;;;;3.23;2.27;;;10.30;99.90;;;;;;6224451;23;20791;-88
2021/12/04 11:38:21;;;;;;;1.70;1.40;;;10.30;99.90;;;;;;6256114;23;20455;-87
2021/12/04 11:40:57;;;;;;;1.10;0.80;;;10.40;99.90;;;;;;6264372;23;20396;-86
2021/12/04 11:43:30;;;;;;;1.73;1.20;;;10.40;99.90;;;;;;6261738;23;20467;-88
2021/12/04 11:46:14;;;;;;;1.73;1.20;;;10.40;99.90;;;;;;6250703;23;20392;-88
2021/12/04 11:48:43;;;;;;;1.40;1.00;;;10.40;99.90;;;;;;6264253;22;20381;-87
2021/12/04 11:51:15;;;;;;;1.10;0.63;;;10.40;99.90;;;;;;6250605;23;20404;-86
2021/12/04 11:53:43;;;;;;;0.70;0.57;;;10.40;99.90;;;;;;6248598;23;20749;-88
2021/12/04 11:56:15;;;;;;;1.10;0.60;;;10.50;99.90;;;;;;6248020;23;20396;-85
2021/12/04 11:58:44;;;;;;;1.73;0.90;;;10.50;99.90;;;;;;6250559;23;20425;-87
2021/12/04 12:01:23;;;;;;;1.13;0.70;;;10.50;99.90;;;;;;6250566;23;20422;-87
2021/12/04 12:03:54;;;;;;;0.70;0.50;;;10.60;99.90;;;;;;6251063;23;20485;-90
2021/12/04 12:06:30;;;;;;;1.77;1.10;;;10.60;99.90;;;;;;6246603;23;20403;-90
2021/12/04 12:09:04;;;;;;;0.63;0.40;;;10.60;99.90;;;;;;6246440;23;20388;-88
2021/12/04 12:11:31;;;;;;;0.87;0.67;;;10.70;99.90;;;;;;6245208;23;20471;-87
2021/12/04 12:14:02;;;;;;;1.30;0.60;;;10.70;99.90;;;;;;6244764;23;20424;-87
2021/12/04 12:16:36;;;;;;;0.80;0.63;;;10.80;99.90;;;;;;6247568;23;20930;-87
2021/12/04 12:19:10;;;;;;;0.90;0.60;;;10.80;99.90;;;;;;6245913;23;20431;-88
2021/12/04 12:21:50;;;;;;;1.03;0.70;;;10.90;99.90;;;;;;6244398;23;20396;-88
2021/12/04 12:24:55;;;;;;;3.23;0.87;;;10.90;99.90;;;;;;6269451;22;20403;-85
2021/12/04 12:27:30;;;;;;;1.07;0.90;;;11.00;99.90;;;;;;6271371;22;20411;-88
2021/12/04 12:33:04;;;;;;;1.07;0.60;;;10.90;99.90;;;;;;6247174;23;20522;-88
2021/12/04 12:38:41;;;;;;;0.60;0.50;;;11.00;99.90;;;;;;6246628;23;20427;-86
2021/12/04 12:41:11;;;;;;;0.67;0.50;;;11.00;99.90;;;;;;6253880;23;20397;-88
2021/12/04 12:43:44;;;;;;;1.20;0.60;;;11.00;99.90;;;;;;6267233;23;20420;-85
2021/12/04 12:46:11;;;;;;;1.50;0.70;;;11.00;99.90;;;;;;6256697;23;20395;-85
2021/12/04 12:48:52;;;;;;;1.10;0.77;;;11.00;99.90;;;;;;6252504;23;20407;-86
2021/12/04 12:51:30;;;;;;;1.00;0.80;;;11.00;99.90;;;;;;6270323;22;20388;-86
2021/12/04 12:53:59;;;;;;;5.50;0.67;;;11.00;99.90;;;;;;6253254;23;20434;-87
2021/12/04 12:56:29;;;;;;;0.87;0.50;;;10.90;99.90;;;;;;6249665;23;20399;-86
2021/12/04 12:59:00;;;;;;;0.90;0.53;;;10.90;99.90;;;;;;6246147;23;20800;-87
2021/12/04 13:12:49;;;;;;;1.03;0.70;;;10.70;99.90;;;;;;6244372;23;20408;-87
2021/12/04 13:15:30;;;;;;;1.10;0.80;;;10.60;99.90;;;;;;6267092;22;20435;-87
2021/12/04 13:18:08;;;;;;;0.90;0.60;;;10.60;99.90;;;;;;6254748;23;20639;-87
2021/12/04 13:20:35;;;;;;;0.80;0.70;;;10.60;99.90;;;;;;6245427;23;20402;-88
2021/12/04 13:23:10;;;;;;;2.20;0.80;;;10.60;99.90;;;;;;6247745;23;20437;-88
2021/12/04 13:25:37;;;;;;;1.40;0.93;;;10.60;99.90;;;;;;6249290;23;20434;-88
2021/12/04 13:30:30;;;;;;;1.10;0.70;;;10.60;99.90;;;;;;6246770;23;20495;-87
2021/12/04 13:32:57;;;;;;;0.93;0.73;;;10.60;99.90;;;;;;6245463;23;20510;-88
2021/12/04 13:35:25;;;;;;;1.43;0.93;;;10.60;99.90;;;;;;6248444;23;20408;-88
2021/12/04 13:37:58;;;;;;;1.30;0.80;;;10.70;99.90;;;;;;6246926;23;20407;-87
2021/12/04 13:40:28;;;;;;;1.13;0.90;;;10.60;99.90;;;;;;6261037;23;20451;-86
2021/12/04 13:42:55;;;;;;;4.90;1.13;;;10.60;99.90;;;;;;6249462;23;20423;-86
2021/12/04 13:45:23;;;;;;;1.03;0.93;;;10.60;99.90;;;;;;6250900;23;20407;-90
2021/12/04 13:47:53;;;;;;;1.70;1.13;;;10.60;99.90;;;;;;6266288;23;20391;-88
2021/12/04 13:53:06;;;;;;;2.80;0.87;;;10.70;99.90;;;;;;6267023;23;20423;-84
2021/12/04 13:55:43;;;;;;;1.20;0.80;;;10.70;99.90;;;;;;6264796;22;20403;-85
2021/12/04 13:58:10;;;;;;;1.97;0.90;;;10.60;99.90;;;;;;6259480;22;20408;-86
2021/12/04 14:00:37;;;;;;;0.70;0.70;;;10.60;99.90;;;;;;6273009;22;20409;-86
2021/12/04 14:03:05;;;;;;;1.93;0.90;;;10.50;99.90;;;;;;6273461;23;20502;-86
2021/12/04 14:05:32;;;;;;;1.27;1.10;;;10.40;99.90;;;;;;6269172;22;20403;-86
2021/12/04 14:08:01;;;;;;;2.80;2.20;;;10.40;99.90;;;;;;6260647;22;20427;-86
2021/12/04 14:10:30;;;;;;;2.83;1.70;;;10.30;99.90;;;;;;6267527;23;20412;-84
2021/12/04 14:12:59;;;;;;;1.20;1.03;;;10.20;99.90;;;;;;6265780;23;20416;-85
2021/12/04 14:15:27;;;;;;;1.13;1.03;;;10.10;99.90;;;;;;6257109;23;20411;-86
2021/12/04 14:17:59;;;;;;;1.20;0.80;;;10.10;99.90;;;;;;6254243;23;20384;-86
2021/12/04 14:20:27;;;;;;;0.70;0.57;;;10.00;99.90;;;;;;6273810;23;20471;-86
2021/12/04 14:22:56;;;;;;;0.80;0.70;;;10.00;99.90;;;;;;6258432;23;20447;-87
2021/12/04 14:25:26;;;;;;;4.00;0.93;;;9.90;99.90;;;;;;6246968;23;20420;-87
2021/12/04 14:27:55;;;;;;;1.47;0.80;;;9.90;99.90;;;;;;6247599;23;20399;-87
2021/12/04 14:30:25;;;;;;;0.90;0.63;;;9.90;99.90;;;;;;6245668;23;20408;-88
2021/12/04 14:32:55;;;;;;;1.77;1.40;;;9.90;99.90;;;;;;6245720;23;20526;-86
2021/12/04 14:35:26;;;;;;;1.60;1.27;;;9.90;99.90;;;;;;6246474;23;20421;-86
2021/12/04 14:37:55;;;;;;;1.37;0.80;;;9.80;99.90;;;;;;6248911;23;20415;-87
2021/12/04 14:40:27;;;;;;;1.20;0.90;;;9.80;99.90;;;;;;6264160;23;20770;-89
2021/12/04 14:42:55;;;;;;;1.17;0.80;;;9.80;99.90;;;;;;6254869;23;20934;-89
2021/12/04 14:45:25;;;;;;;1.07;0.90;;;9.80;99.90;;;;;;6254231;23;20408;-86
2021/12/04 14:47:56;;;;;;;1.30;1.00;;;9.80;99.90;;;;;;6248106;23;20415;-88
2021/12/04 14:50:26;;;;;;;3.93;1.37;;;9.80;99.90;;;;;;6246869;23;20405;-88
2021/12/04 14:52:56;;;;;;;1.33;1.17;;;9.80;99.90;;;;;;6246400;23;20436;-87
2021/12/04 14:55:32;;;;;;;1.60;1.50;;;9.80;99.90;;;;;;6247548;23;20389;-87
2021/12/04 14:57:59;;;;;;;1.57;0.90;;;9.80;99.90;;;;;;6249906;23;20553;-85
2021/12/04 15:00:30;;;;;;;1.23;0.87;;;9.80;99.90;;;;;;6249340;23;20396;-86
2021/12/04 15:02:59;;;;;;;3.27;1.07;;;9.80;99.90;;;;;;6249499;23;20428;-88
2021/12/04 15:05:28;;;;;;;1.30;1.00;;;9.80;99.90;;;;;;6249732;23;20404;-87
2021/12/04 15:08:03;;;;;;;2.53;2.13;;;9.80;99.90;;;;;;6261666;23;20414;-87
2021/12/04 15:10:30;;;;;;;2.40;1.40;;;9.80;99.90;;;;;;6258214;23;20405;-87
2021/12/04 15:12:58;;;;;;;5.47;1.93;;;9.80;99.90;;;;;;6249505;23;20420;-87
2021/12/04 15:15:30;;;;;;;1.20;1.10;;;9.80;99.90;;;;;;6254936;23;20399;-85
2021/12/04 15:17:59;;;;;;;1.10;1.00;;;9.70;99.90;;;;;;6253140;23;20400;-87
2021/12/04 15:20:33;;;;;;;1.93;1.00;;;9.80;99.90;;;;;;6247446;23;20446;-84
2021/12/04 15:23:03;;;;;;;1.53;1.10;;;9.70;99.90;;;;;;6249984;23;20430;-85
2021/12/04 15:25:33;;;;;;;5.30;1.17;;;9.70;99.90;;;;;;6248306;23;20390;-87
2021/12/04 15:28:01;;;;;;;1.10;1.00;;;9.70;99.90;;;;;;6246363;23;20458;-85
2021/12/04 15:30:29;;;;;;;2.43;1.27;;;9.70;99.90;;;;;;6246874;23;20403;-85